Time;durP1;ratioP1;P1;durP2;ratioP2;P2;SDS_P1;SDS_P2;PMS_P1;PMS_P2;Temp;Humidity;BMP_temperature;BMP_pressure;BME280_temperature;BME280_humidity;BME280_pressure;Samples;Min_cycle;Max_cycle;Signal;HPM_P1;HPM_P2
2023/07/09 00:01:41;;;;;;;4.57;4.05;;;;;;;;;;4977542;28;20043;-75
2023/07/09 00:04:10;;;;;;;4.78;4.22;;;;;;;;;;4985551;28;20038;-75
2023/07/09 00:06:35;;;;;;;5.70;4.35;;;;;;;;;;4996058;28;20049;-76
2023/07/09 00:09:01;;;;;;;5.65;4.25;;;;;;;;;;4996043;28;20033;-76
2023/07/09 00:11:26;;;;;;;3.95;3.65;;;;;;;;;;4995657;28;20045;-75
2023/07/09 00:13:51;;;;;;;5.38;4.50;;;;;;;;;;4995944;28;20040;-75
2023/07/09 00:16:24;;;;;;;4.28;3.42;;;;;;;;;;4994823;28;20081;-75
2023/07/09 00:18:49;;;;;;;3.58;3.28;;;;;;;;;;4987082;28;20034;-76
2023/07/09 00:21:17;;;;;;;4.63;4.05;;;;;;;;;;4999745;28;20395;-76
2023/07/09 00:23:43;;;;;;;3.17;2.88;;;;;;;;;;4994134;28;20040;-76
2023/07/09 00:26:13;;;;;;;5.68;4.20;;;;;;;;;;4995270;28;20037;-75
2023/07/09 00:28:39;;;;;;;7.40;5.03;;;;;;;;;;4985952;28;20050;-76
2023/07/09 00:31:06;;;;;;;4.18;3.78;;;;;;;;;;4969464;28;20561;-76
2023/07/09 00:33:31;;;;;;;4.15;3.72;;;;;;;;;;4977645;28;20498;-76
2023/07/09 00:35:57;;;;;;;4.35;3.78;;;;;;;;;;4981246;28;20049;-74
2023/07/09 00:38:23;;;;;;;6.20;4.15;;;;;;;;;;5000817;28;20091;-76
2023/07/09 00:41:06;;;;;;;5.95;3.92;;;;;;;;;;5007395;28;20135;-75
2023/07/09 00:43:36;;;;;;;3.75;3.45;;;;;;;;;;4986972;28;20057;-75
2023/07/09 00:46:19;;;;;;;5.40;4.10;;;;;;;;;;4994930;28;20753;-75
2023/07/09 00:49:05;;;;;;;5.30;4.25;;;;;;;;;;4988826;28;20041;-75
2023/07/09 00:51:32;;;;;;;5.70;4.20;;;;;;;;;;4990745;28;20034;-75
2023/07/09 00:54:01;;;;;;;4.82;3.72;;;;;;;;;;4957764;28;20369;-75
2023/07/09 00:56:33;;;;;;;4.50;3.90;;;;;;;;;;4989853;28;20079;-76
2023/07/09 00:59:04;;;;;;;4.80;3.75;;;;;;;;;;4994728;28;20134;-75
2023/07/09 01:01:30;;;;;;;6.68;4.28;;;;;;;;;;4991547;28;20038;-76
2023/07/09 01:03:59;;;;;;;4.28;3.88;;;;;;;;;;5002579;28;20052;-75
2023/07/09 01:06:38;;;;;;;4.93;4.13;;;;;;;;;;4994497;28;20414;-75
2023/07/09 01:09:04;;;;;;;4.63;3.47;;;;;;;;;;4969660;28;20514;-75
2023/07/09 01:11:30;;;;;;;3.70;3.40;;;;;;;;;;4995914;28;20119;-76
2023/07/09 01:14:01;;;;;;;6.68;4.07;;;;;;;;;;4995190;28;20131;-75
2023/07/09 01:16:30;;;;;;;5.22;3.47;;;;;;;;;;4988208;28;20578;-76
2023/07/09 01:18:55;;;;;;;3.30;3.00;;;;;;;;;;4995113;28;20107;-76
2023/07/09 01:21:21;;;;;;;4.30;3.90;;;;;;;;;;4979041;28;20537;-76
2023/07/09 01:23:48;;;;;;;4.88;4.25;;;;;;;;;;4986948;28;20092;-75
2023/07/09 01:26:16;;;;;;;24.00;15.98;;;;;;;;;;4985202;28;20046;-75
2023/07/09 01:28:43;;;;;;;7.80;6.95;;;;;;;;;;4984307;28;20057;-75
2023/07/09 01:31:11;;;;;;;5.03;4.22;;;;;;;;;;4993623;28;20037;-75
2023/07/09 01:33:39;;;;;;;3.30;3.00;;;;;;;;;;4995127;28;20061;-75
2023/07/09 01:36:13;;;;;;;4.70;3.78;;;;;;;;;;4968614;28;20034;-75
2023/07/09 01:38:39;;;;;;;3.35;3.05;;;;;;;;;;4994185;28;20042;-75
2023/07/09 01:41:05;;;;;;;3.60;3.30;;;;;;;;;;4995122;28;20305;-75
2023/07/09 01:43:31;;;;;;;3.42;3.13;;;;;;;;;;4994022;28;20065;-75
2023/07/09 01:45:57;;;;;;;4.07;3.45;;;;;;;;;;4973117;28;20128;-74
2023/07/09 01:48:24;;;;;;;4.22;3.60;;;;;;;;;;4983192;28;20597;-74
2023/07/09 01:50:51;;;;;;;4.32;3.92;;;;;;;;;;4994267;28;20111;-75
2023/07/09 01:53:19;;;;;;;4.80;4.00;;;;;;;;;;4986032;28;20046;-75
2023/07/09 01:55:45;;;;;;;4.20;3.30;;;;;;;;;;4983610;28;20078;-74
2023/07/09 01:58:10;;;;;;;5.47;3.88;;;;;;;;;;4987603;28;20128;-75
2023/07/09 02:00:36;;;;;;;4.03;3.63;;;;;;;;;;4969997;28;20042;-75
2023/07/09 02:03:04;;;;;;;3.60;3.30;;;;;;;;;;4971471;28;20745;-75
2023/07/09 02:05:32;;;;;;;4.07;3.40;;;;;;;;;;4991394;28;20534;-74
2023/07/09 02:07:58;;;;;;;4.50;3.65;;;;;;;;;;4999658;28;20172;-75
2023/07/09 02:10:23;;;;;;;4.55;3.95;;;;;;;;;;4984149;28;20184;-74
2023/07/09 02:12:48;;;;;;;6.97;4.40;;;;;;;;;;4977647;28;20084;-74
2023/07/09 02:15:15;;;;;;;6.88;4.63;;;;;;;;;;4982107;28;20046;-74
2023/07/09 02:17:40;;;;;;;5.38;4.53;;;;;;;;;;5000363;28;20042;-74
2023/07/09 02:20:08;;;;;;;4.35;3.83;;;;;;;;;;4994378;28;20033;-75
2023/07/09 02:22:35;;;;;;;4.57;3.92;;;;;;;;;;4973352;28;20034;-75
2023/07/09 02:25:00;;;;;;;3.65;3.35;;;;;;;;;;4993439;28;20136;-74
2023/07/09 02:27:26;;;;;;;4.65;3.25;;;;;;;;;;4994389;28;20101;-74
2023/07/09 02:29:51;;;;;;;3.90;3.50;;;;;;;;;;4984947;28;20665;-74
2023/07/09 02:32:19;;;;;;;4.00;3.60;;;;;;;;;;4992970;28;20053;-74
2023/07/09 02:34:48;;;;;;;4.45;3.55;;;;;;;;;;4993881;28;20042;-74
2023/07/09 02:37:16;;;;;;;4.05;2.90;;;;;;;;;;4988824;28;20030;-74
2023/07/09 02:39:41;;;;;;;5.18;3.88;;;;;;;;;;4994606;28;20044;-74
2023/07/09 02:42:10;;;;;;;3.65;3.33;;;;;;;;;;4967733;28;20034;-75
2023/07/09 02:44:35;;;;;;;4.28;3.30;;;;;;;;;;4992939;28;20045;-74
2023/07/09 02:47:00;;;;;;;3.85;3.25;;;;;;;;;;4993784;28;20038;-75
2023/07/09 02:49:26;;;;;;;4.07;3.33;;;;;;;;;;4994437;28;20030;-74
2023/07/09 02:51:51;;;;;;;3.33;3.03;;;;;;;;;;4993864;28;20034;-74
2023/07/09 02:54:17;;;;;;;3.40;3.10;;;;;;;;;;4992208;28;20360;-75
2023/07/09 02:56:42;;;;;;;4.40;3.63;;;;;;;;;;4981051;28;20042;-74
2023/07/09 02:59:07;;;;;;;5.43;3.60;;;;;;;;;;4990730;28;20073;-74
2023/07/09 03:01:34;;;;;;;3.75;3.10;;;;;;;;;;4986088;28;20854;-74
2023/07/09 03:04:01;;;;;;;3.50;3.15;;;;;;;;;;4996746;28;20121;-74
2023/07/09 03:06:27;;;;;;;4.55;3.95;;;;;;;;;;5002272;28;20038;-74
2023/07/09 03:08:53;;;;;;;6.00;4.00;;;;;;;;;;4993971;28;20034;-74
2023/07/09 03:11:20;;;;;;;4.50;3.65;;;;;;;;;;4971528;28;20046;-75
2023/07/09 03:13:46;;;;;;;6.68;4.07;;;;;;;;;;5004933;28;20045;-74
2023/07/09 03:16:12;;;;;;;5.75;4.05;;;;;;;;;;4991768;28;20094;-74
2023/07/09 03:18:37;;;;;;;3.85;3.45;;;;;;;;;;4988722;28;20038;-74
2023/07/09 03:21:03;;;;;;;4.70;3.60;;;;;;;;;;4995256;28;20064;-74
2023/07/09 03:23:28;;;;;;;4.32;3.70;;;;;;;;;;4988123;28;20037;-74
2023/07/09 03:25:55;;;;;;;5.10;4.13;;;;;;;;;;4997557;28;20038;-74
2023/07/09 03:28:21;;;;;;;3.92;2.90;;;;;;;;;;4994870;28;20033;-74
2023/07/09 03:30:48;;;;;;;6.38;3.95;;;;;;;;;;4996309;28;20122;-74
2023/07/09 03:33:15;;;;;;;4.03;3.63;;;;;;;;;;4993110;28;20030;-74
2023/07/09 03:35:41;;;;;;;3.50;3.20;;;;;;;;;;5007233;28;20594;-74
2023/07/09 03:38:08;;;;;;;3.45;2.80;;;;;;;;;;4985880;28;20533;-74
2023/07/09 03:40:34;;;;;;;3.47;2.78;;;;;;;;;;4999147;28;20034;-75
2023/07/09 03:42:59;;;;;;;3.03;2.72;;;;;;;;;;5001011;28;20045;-74
2023/07/09 03:45:25;;;;;;;3.33;3.03;;;;;;;;;;5003546;28;20403;-75
2023/07/09 03:47:50;;;;;;;3.80;3.40;;;;;;;;;;4996740;28;20097;-74
2023/07/09 03:50:16;;;;;;;4.68;3.63;;;;;;;;;;4997973;28;20090;-75
2023/07/09 03:52:42;;;;;;;4.75;3.58;;;;;;;;;;4983682;28;20088;-75
2023/07/09 03:55:08;;;;;;;4.50;3.90;;;;;;;;;;4979915;28;20046;-75
2023/07/09 03:57:34;;;;;;;5.15;3.25;;;;;;;;;;4996901;28;20040;-75
2023/07/09 04:00:00;;;;;;;6.07;3.97;;;;;;;;;;5003065;28;20658;-75
2023/07/09 04:02:26;;;;;;;4.78;3.58;;;;;;;;;;4995375;28;20064;-75
2023/07/09 04:04:51;;;;;;;4.00;3.60;;;;;;;;;;4994743;28;20045;-75
2023/07/09 04:07:17;;;;;;;3.88;3.55;;;;;;;;;;4983298;28;20058;-75
2023/07/09 04:09:42;;;;;;;3.90;3.50;;;;;;;;;;4982003;28;20038;-74
2023/07/09 04:12:09;;;;;;;4.43;3.63;;;;;;;;;;4988543;28;20100;-75
2023/07/09 04:14:35;;;;;;;5.30;3.67;;;;;;;;;;4996797;28;20053;-75
2023/07/09 04:17:01;;;;;;;6.68;4.07;;;;;;;;;;4994459;28;20030;-74
2023/07/09 04:19:26;;;;;;;3.88;3.58;;;;;;;;;;4967990;28;20495;-75
2023/07/09 04:21:52;;;;;;;5.20;4.55;;;;;;;;;;4996161;28;20037;-75
2023/07/09 04:24:19;;;;;;;5.07;4.10;;;;;;;;;;4994791;28;20049;-75
2023/07/09 04:26:44;;;;;;;6.25;4.10;;;;;;;;;;4995992;28;20041;-75
2023/07/09 04:29:10;;;;;;;5.32;4.45;;;;;;;;;;5002919;28;20042;-74
2023/07/09 04:31:37;;;;;;;7.38;4.82;;;;;;;;;;5000187;28;20091;-75
2023/07/09 04:34:03;;;;;;;6.53;4.57;;;;;;;;;;4982644;28;20180;-75
2023/07/09 04:36:29;;;;;;;5.57;4.35;;;;;;;;;;4995532;28;20045;-75
2023/07/09 04:38:54;;;;;;;6.68;4.90;;;;;;;;;;4995248;28;21023;-75
2023/07/09 04:41:20;;;;;;;6.70;4.40;;;;;;;;;;4996326;28;20038;-75
2023/07/09 04:43:45;;;;;;;5.47;4.70;;;;;;;;;;5002146;28;20438;-75
2023/07/09 04:46:10;;;;;;;5.43;4.80;;;;;;;;;;4982601;28;20046;-75
2023/07/09 04:48:36;;;;;;;7.00;5.13;;;;;;;;;;4989732;28;20064;-76
2023/07/09 04:51:01;;;;;;;7.28;4.85;;;;;;;;;;4996004;28;20490;-75
2023/07/09 04:53:27;;;;;;;7.63;4.57;;;;;;;;;;4995933;28;20033;-75
2023/07/09 04:55:52;;;;;;;5.50;4.75;;;;;;;;;;4991458;28;20042;-75
2023/07/09 04:58:18;;;;;;;7.38;4.68;;;;;;;;;;4979645;28;20030;-76
2023/07/09 05:00:45;;;;;;;7.45;5.15;;;;;;;;;;4999241;28;20041;-76
2023/07/09 05:03:10;;;;;;;6.85;4.95;;;;;;;;;;4990300;28;20050;-76
2023/07/09 05:05:42;;;;;;;5.30;4.80;;;;;;;;;;4995090;28;20046;-75
2023/07/09 05:08:08;;;;;;;8.15;5.13;;;;;;;;;;4993225;28;20042;-75
2023/07/09 05:10:33;;;;;;;6.97;4.53;;;;;;;;;;4966300;28;20116;-75
2023/07/09 05:12:58;;;;;;;5.43;4.53;;;;;;;;;;4987249;28;20038;-75
2023/07/09 05:15:24;;;;;;;5.75;4.50;;;;;;;;;;4984248;28;20038;-75
2023/07/09 05:17:49;;;;;;;5.55;4.93;;;;;;;;;;4994117;28;20129;-75
2023/07/09 05:20:15;;;;;;;5.30;4.50;;;;;;;;;;4992736;28;20046;-75
2023/07/09 05:22:40;;;;;;;6.10;4.90;;;;;;;;;;4994521;28;20635;-75
2023/07/09 05:25:06;;;;;;;4.78;4.35;;;;;;;;;;4995549;28;20041;-75
2023/07/09 05:27:31;;;;;;;5.70;4.72;;;;;;;;;;4983430;28;20045;-75
2023/07/09 05:29:58;;;;;;;6.53;4.65;;;;;;;;;;4984385;28;20410;-75
2023/07/09 05:32:23;;;;;;;5.85;4.97;;;;;;;;;;4981119;28;20427;-75
2023/07/09 05:34:49;;;;;;;7.65;5.43;;;;;;;;;;4986459;28;20045;-74
2023/07/09 05:37:14;;;;;;;6.68;4.82;;;;;;;;;;5002837;28;20045;-76
2023/07/09 05:39:40;;;;;;;7.65;4.93;;;;;;;;;;5006101;28;20128;-75
2023/07/09 05:42:06;;;;;;;5.85;4.90;;;;;;;;;;4995818;28;20042;-76
2023/07/09 05:44:31;;;;;;;7.15;5.55;;;;;;;;;;4983700;28;20034;-77
2023/07/09 05:46:56;;;;;;;6.03;4.80;;;;;;;;;;4994262;28;20042;-76
2023/07/09 05:49:22;;;;;;;6.00;4.88;;;;;;;;;;4977963;28;20065;-77
2023/07/09 05:51:47;;;;;;;6.93;5.25;;;;;;;;;;4992798;28;20041;-75
2023/07/09 05:54:14;;;;;;;6.22;4.93;;;;;;;;;;4991152;28;20475;-77
2023/07/09 05:56:39;;;;;;;7.28;4.82;;;;;;;;;;4997847;28;20131;-76
2023/07/09 05:59:05;;;;;;;7.68;5.28;;;;;;;;;;4984167;28;20042;-75
2023/07/09 06:01:30;;;;;;;5.97;4.75;;;;;;;;;;4993149;28;20499;-74
2023/07/09 06:03:56;;;;;;;6.50;5.03;;;;;;;;;;4993249;28;20049;-77
2023/07/09 06:06:22;;;;;;;7.45;5.60;;;;;;;;;;4969877;28;20418;-77
2023/07/09 06:08:47;;;;;;;5.93;4.80;;;;;;;;;;4985125;28;20038;-77
2023/07/09 06:11:13;;;;;;;6.32;4.90;;;;;;;;;;4994951;28;20520;-76
2023/07/09 06:13:39;;;;;;;6.80;3.92;;;;;;;;;;4992348;28;21086;-76
2023/07/09 06:16:05;;;;;;;6.25;5.60;;;;;;;;;;4994782;28;20034;-76
2023/07/09 06:18:30;;;;;;;7.55;5.50;;;;;;;;;;4993663;28;20057;-75
2023/07/09 06:20:58;;;;;;;6.40;5.68;;;;;;;;;;4993193;28;20529;-76
2023/07/09 06:23:24;;;;;;;5.53;5.03;;;;;;;;;;4992874;28;20538;-76
2023/07/09 06:25:50;;;;;;;6.15;5.10;;;;;;;;;;4968270;28;20549;-75
2023/07/09 06:28:21;;;;;;;6.60;5.72;;;;;;;;;;4993122;28;20034;-76
2023/07/09 06:30:46;;;;;;;6.30;5.43;;;;;;;;;;4995640;28;20103;-76
2023/07/09 06:33:13;;;;;;;6.55;5.03;;;;;;;;;;5002659;28;20049;-76
2023/07/09 06:35:39;;;;;;;7.38;5.13;;;;;;;;;;4995448;28;20073;-76
2023/07/09 06:38:05;;;;;;;6.03;5.43;;;;;;;;;;4988790;28;20057;-76
2023/07/09 06:40:31;;;;;;;7.07;5.40;;;;;;;;;;4983391;28;20034;-77
2023/07/09 06:42:57;;;;;;;5.95;5.35;;;;;;;;;;4978187;28;20477;-77
2023/07/09 06:45:23;;;;;;;5.88;5.13;;;;;;;;;;4968424;28;20029;-77
2023/07/09 06:47:49;;;;;;;5.82;5.22;;;;;;;;;;4963207;28;20034;-77
2023/07/09 06:50:14;;;;;;;7.65;5.50;;;;;;;;;;4974690;28;20499;-77
2023/07/09 06:52:40;;;;;;;7.93;5.20;;;;;;;;;;4985186;28;20034;-77
2023/07/09 06:55:06;;;;;;;5.30;4.80;;;;;;;;;;4982156;28;20033;-77
2023/07/09 06:57:31;;;;;;;7.22;5.03;;;;;;;;;;4976501;28;20110;-77
2023/07/09 06:59:57;;;;;;;6.03;4.85;;;;;;;;;;4969701;28;20122;-77
2023/07/09 07:02:22;;;;;;;5.97;4.82;;;;;;;;;;4974984;28;20022;-77
2023/07/09 07:04:47;;;;;;;5.60;5.10;;;;;;;;;;4979940;28;20037;-77
2023/07/09 07:07:13;;;;;;;5.60;4.80;;;;;;;;;;4978379;28;20030;-77
2023/07/09 07:09:39;;;;;;;5.50;4.55;;;;;;;;;;4970143;28;20841;-77
2023/07/09 07:12:05;;;;;;;5.60;5.10;;;;;;;;;;4977087;28;20037;-77
2023/07/09 07:14:31;;;;;;;7.03;5.05;;;;;;;;;;4977932;28;20026;-77
2023/07/09 07:16:57;;;;;;;7.20;5.30;;;;;;;;;;4972697;28;20085;-77
2023/07/09 07:19:24;;;;;;;4.75;4.35;;;;;;;;;;4972297;28;20029;-77
2023/07/09 07:21:49;;;;;;;5.63;5.05;;;;;;;;;;4969580;28;20026;-77
2023/07/09 07:24:15;;;;;;;8.52;4.93;;;;;;;;;;4973541;28;20399;-77
2023/07/09 07:26:40;;;;;;;6.18;4.60;;;;;;;;;;4972995;28;20035;-76
2023/07/09 07:29:06;;;;;;;5.78;4.75;;;;;;;;;;4972883;28;20035;-77
2023/07/09 07:31:31;;;;;;;5.55;5.05;;;;;;;;;;4969548;28;20105;-77
2023/07/09 07:33:56;;;;;;;4.95;4.03;;;;;;;;;;4968615;28;20085;-77
2023/07/09 07:36:22;;;;;;;4.53;4.07;;;;;;;;;;4967877;28;20479;-77
2023/07/09 07:38:47;;;;;;;5.85;5.32;;;;;;;;;;4966326;28;20037;-77
2023/07/09 07:41:12;;;;;;;6.47;5.05;;;;;;;;;;4966154;28;20033;-77
2023/07/09 07:43:38;;;;;;;5.35;4.85;;;;;;;;;;4967850;28;20026;-77
2023/07/09 07:46:03;;;;;;;4.80;4.30;;;;;;;;;;4968575;28;20517;-77
2023/07/09 07:48:29;;;;;;;6.85;5.55;;;;;;;;;;4965660;28;20089;-76
2023/07/09 07:51:02;;;;;;;5.20;4.63;;;;;;;;;;4970943;28;20037;-75
2023/07/09 07:53:29;;;;;;;6.32;5.20;;;;;;;;;;4970352;28;20027;-77
2023/07/09 07:55:56;;;;;;;8.45;5.15;;;;;;;;;;4967952;28;20682;-76
2023/07/09 07:58:22;;;;;;;6.32;5.00;;;;;;;;;;4967825;28;20033;-76
2023/07/09 08:00:47;;;;;;;5.55;4.97;;;;;;;;;;4972812;28;20043;-77
2023/07/09 08:03:13;;;;;;;5.65;5.15;;;;;;;;;;4970269;28;20025;-77
2023/07/09 08:05:38;;;;;;;8.00;5.35;;;;;;;;;;4969864;28;20433;-76
2023/07/09 08:08:04;;;;;;;5.63;5.00;;;;;;;;;;4968339;28;20049;-77
2023/07/09 08:10:29;;;;;;;6.20;5.45;;;;;;;;;;4968199;28;20031;-77
2023/07/09 08:12:56;;;;;;;6.00;4.78;;;;;;;;;;4960179;28;20030;-76
2023/07/09 08:15:23;;;;;;;5.32;4.72;;;;;;;;;;4968158;28;20015;-77
2023/07/09 08:17:49;;;;;;;9.23;4.90;;;;;;;;;;4968131;28;20029;-77
2023/07/09 08:20:14;;;;;;;4.55;4.15;;;;;;;;;;4969574;28;20031;-77
2023/07/09 08:22:39;;;;;;;6.20;4.38;;;;;;;;;;4974927;28;20454;-77
2023/07/09 08:25:06;;;;;;;6.32;5.22;;;;;;;;;;4971802;28;20048;-77
2023/07/09 08:27:31;;;;;;;5.80;5.10;;;;;;;;;;4971691;28;20031;-77
2023/07/09 08:29:57;;;;;;;8.73;5.28;;;;;;;;;;4968667;28;20027;-77
2023/07/09 08:32:22;;;;;;;6.05;5.45;;;;;;;;;;4969775;28;20027;-76
2023/07/09 08:34:47;;;;;;;6.45;5.22;;;;;;;;;;4979380;28;20035;-76
2023/07/09 08:37:13;;;;;;;5.82;5.30;;;;;;;;;;4978954;28;20029;-76
2023/07/09 08:39:38;;;;;;;6.13;5.40;;;;;;;;;;4969890;28;20038;-76
2023/07/09 08:42:09;;;;;;;6.00;5.40;;;;;;;;;;4963602;28;20031;-76
2023/07/09 08:45:04;;;;;;;7.03;5.40;;;;;;;;;;4968997;28;20113;-77
2023/07/09 08:47:52;;;;;;;5.65;5.00;;;;;;;;;;4974545;28;20586;-76
2023/07/09 08:50:40;;;;;;;6.72;4.90;;;;;;;;;;4968208;28;20035;-77
2023/07/09 08:53:16;;;;;;;6.40;5.20;;;;;;;;;;4972868;28;20118;-76
2023/07/09 08:55:43;;;;;;;5.38;4.88;;;;;;;;;;4971687;28;20035;-77
2023/07/09 08:58:17;;;;;;;5.35;4.68;;;;;;;;;;4967604;28;20033;-76
2023/07/09 09:01:11;;;;;;;5.30;4.68;;;;;;;;;;4969196;28;20026;-77
2023/07/09 09:03:42;;;;;;;6.43;5.32;;;;;;;;;;4969455;28;20682;-76
2023/07/09 09:06:17;;;;;;;6.43;5.30;;;;;;;;;;4980328;28;20062;-77
2023/07/09 09:08:58;;;;;;;5.85;5.35;;;;;;;;;;4970637;28;20034;-76
2023/07/09 09:11:29;;;;;;;6.13;5.13;;;;;;;;;;4971260;28;20513;-76
2023/07/09 09:14:01;;;;;;;8.02;5.47;;;;;;;;;;4966682;28;20033;-76
2023/07/09 09:16:29;;;;;;;6.00;5.40;;;;;;;;;;4966065;28;20105;-76
2023/07/09 09:18:58;;;;;;;6.50;5.65;;;;;;;;;;4976363;28;20446;-76
2023/07/09 09:21:32;;;;;;;6.28;5.68;;;;;;;;;;4977985;28;20418;-77
2023/07/09 09:24:12;;;;;;;9.07;5.80;;;;;;;;;;4971948;28;20217;-76
2023/07/09 09:26:41;;;;;;;6.18;5.57;;;;;;;;;;4969809;28;20085;-76
2023/07/09 09:29:15;;;;;;;7.20;5.20;;;;;;;;;;4978252;28;20029;-76
2023/07/09 09:31:44;;;;;;;6.88;5.53;;;;;;;;;;4972847;28;20026;-77
2023/07/09 09:34:20;;;;;;;6.57;5.32;;;;;;;;;;4974667;28;20082;-77
2023/07/09 09:36:47;;;;;;;5.95;5.35;;;;;;;;;;4969469;28;20035;-76
2023/07/09 09:39:12;;;;;;;5.13;4.40;;;;;;;;;;4976127;28;20076;-77
2023/07/09 09:41:38;;;;;;;4.00;3.60;;;;;;;;;;4967807;28;20117;-77
2023/07/09 09:44:04;;;;;;;6.20;5.35;;;;;;;;;;4977012;28;20068;-77
2023/07/09 09:46:31;;;;;;;4.82;4.30;;;;;;;;;;4971517;28;20395;-77
2023/07/09 09:49:01;;;;;;;7.40;5.50;;;;;;;;;;4971382;28;20035;-77
2023/07/09 09:51:27;;;;;;;;;;;;;;;;;;4974337;28;20038;-77
2023/07/09 09:53:58;;;;;;;6.63;4.60;;;;;;;;;;4967004;28;19914;-76
2023/07/09 09:56:29;;;;;;;6.32;5.60;;;;;;;;;;4963683;28;20037;-75
2023/07/09 09:58:57;;;;;;;5.80;5.20;;;;;;;;;;4966592;28;20559;-75
2023/07/09 10:01:37;;;;;;;5.40;3.95;;;;;;;;;;4969513;28;20041;-75
2023/07/09 10:04:04;;;;;;;6.22;5.18;;;;;;;;;;4966086;28;20027;-77
2023/07/09 10:06:36;;;;;;;11.13;5.95;;;;;;;;;;4973585;28;20038;-77
2023/07/09 10:09:20;;;;;;;7.47;5.75;;;;;;;;;;4972260;28;20110;-78
2023/07/09 10:12:03;;;;;;;5.60;4.97;;;;;;;;;;4976993;28;20062;-75
2023/07/09 10:14:49;;;;;;;5.63;4.75;;;;;;;;;;4971611;28;20023;-78
2023/07/09 10:17:22;;;;;;;7.38;5.43;;;;;;;;;;4972378;28;20392;-76
2023/07/09 10:19:58;;;;;;;4.85;4.18;;;;;;;;;;4969981;28;20038;-77
2023/07/09 10:22:28;;;;;;;6.28;5.15;;;;;;;;;;4980368;28;20088;-77
2023/07/09 10:25:22;;;;;;;6.35;5.70;;;;;;;;;;4978578;28;20030;-77
2023/07/09 10:28:07;;;;;;;5.47;4.88;;;;;;;;;;4981300;28;20057;-77
2023/07/09 10:30:45;;;;;;;8.27;5.13;;;;;;;;;;4975194;28;20030;-77
2023/07/09 10:33:15;;;;;;;11.10;5.30;;;;;;;;;;4977008;28;20034;-77
2023/07/09 10:35:43;;;;;;;;;;;;;;;;;;4983429;28;20239;-76
2023/07/09 10:38:21;;;;;;;6.80;5.13;;;;;;;;;;4980512;28;20017;-77
2023/07/09 10:40:54;;;;;;;7.55;5.30;;;;;;;;;;4969344;28;20026;-77
2023/07/09 10:43:42;;;;;;;6.13;4.88;;;;;;;;;;4974590;28;20038;-75
2023/07/09 10:46:19;;;;;;;5.40;4.78;;;;;;;;;;4967856;28;20787;-77
2023/07/09 10:48:48;;;;;;;5.40;4.90;;;;;;;;;;4970223;28;20037;-77
2023/07/09 10:51:26;;;;;;;4.60;4.10;;;;;;;;;;4970792;28;20105;-77
2023/07/09 10:53:58;;;;;;;3.75;3.45;;;;;;;;;;4970627;28;20054;-78
2023/07/09 10:56:31;;;;;;;4.43;3.33;;;;;;;;;;4972290;28;20476;-77
2023/07/09 10:59:08;;;;;;;4.45;3.90;;;;;;;;;;4976049;28;20026;-77
2023/07/09 11:01:40;;;;;;;4.43;3.45;;;;;;;;;;4980030;28;20018;-77
2023/07/09 11:04:11;;;;;;;4.43;3.30;;;;;;;;;;4975972;28;20046;-77
2023/07/09 11:06:41;;;;;;;6.30;3.67;;;;;;;;;;4970387;28;20030;-75
2023/07/09 11:09:31;;;;;;;6.00;4.18;;;;;;;;;;4968709;28;20039;-77
2023/07/09 11:12:02;;;;;;;6.13;3.55;;;;;;;;;;4967587;28;20036;-77
2023/07/09 11:14:46;;;;;;;4.60;3.85;;;;;;;;;;4967787;28;20034;-77
2023/07/09 11:17:18;;;;;;;4.38;3.42;;;;;;;;;;4972831;28;20022;-77
2023/07/09 11:19:46;;;;;;;5.45;3.67;;;;;;;;;;4982494;28;20035;-78
2023/07/09 11:22:41;;;;;;;3.28;2.97;;;;;;;;;;4983684;28;20030;-78
2023/07/09 11:25:11;;;;;;;4.45;3.80;;;;;;;;;;4964784;28;20031;-78
2023/07/09 11:27:52;;;;;;;5.88;3.45;;;;;;;;;;4968593;28;20133;-78
2023/07/09 11:30:21;;;;;;;5.65;3.50;;;;;;;;;;4967513;28;20026;-77
2023/07/09 11:32:51;;;;;;;5.03;3.50;;;;;;;;;;4975589;28;20030;-78
2023/07/09 11:35:23;;;;;;;4.70;4.18;;;;;;;;;;4978811;28;20089;-78
2023/07/09 11:37:48;;;;;;;4.57;3.97;;;;;;;;;;4976807;28;20514;-76
2023/07/09 11:40:15;;;;;;;3.70;3.40;;;;;;;;;;4983978;28;20038;-78
2023/07/09 11:42:58;;;;;;;4.68;3.88;;;;;;;;;;4985908;28;20030;-76
2023/07/09 11:45:27;;;;;;;4.13;3.15;;;;;;;;;;4957614;28;20031;-77
2023/07/09 11:48:04;;;;;;;5.47;4.20;;;;;;;;;;4961107;28;20144;-77
2023/07/09 11:50:36;;;;;;;3.97;3.58;;;;;;;;;;4971077;28;20387;-78
2023/07/09 11:53:22;;;;;;;4.00;3.60;;;;;;;;;;4974970;28;20158;-78
2023/07/09 11:55:47;;;;;;;5.25;3.97;;;;;;;;;;4969545;28;20668;-77
2023/07/09 11:58:15;;;;;;;6.68;4.40;;;;;;;;;;4969449;28;20023;-78
2023/07/09 12:00:44;;;;;;;7.63;4.47;;;;;;;;;;4970557;28;21643;-78
2023/07/09 12:03:20;;;;;;;3.67;3.38;;;;;;;;;;4969410;28;20510;-77
2023/07/09 12:05:51;;;;;;;4.70;3.58;;;;;;;;;;4969314;28;20053;-78
2023/07/09 12:08:18;;;;;;;4.75;3.90;;;;;;;;;;4968234;28;20114;-76
2023/07/09 12:10:44;;;;;;;5.47;3.65;;;;;;;;;;4969036;28;20058;-76
2023/07/09 12:13:11;;;;;;;4.93;4.13;;;;;;;;;;4969949;28;20042;-76
2023/07/09 12:15:39;;;;;;;4.65;3.72;;;;;;;;;;4968500;28;20038;-76
2023/07/09 12:18:12;;;;;;;4.20;3.85;;;;;;;;;;4969194;28;20023;-78
2023/07/09 12:20:38;;;;;;;5.50;3.95;;;;;;;;;;4971798;28;20035;-77
2023/07/09 12:23:27;;;;;;;4.28;3.88;;;;;;;;;;4967878;28;20157;-78
2023/07/09 12:25:53;;;;;;;4.93;4.50;;;;;;;;;;4969761;28;20027;-78
2023/07/09 12:28:20;;;;;;;4.57;3.88;;;;;;;;;;4970486;28;20110;-77
2023/07/09 12:30:50;;;;;;;7.38;4.68;;;;;;;;;;4972827;28;20034;-77
2023/07/09 12:33:19;;;;;;;4.65;3.85;;;;;;;;;;4975449;28;20035;-77
2023/07/09 12:35:50;;;;;;;4.90;3.70;;;;;;;;;;4971007;28;20038;-78
2023/07/09 12:38:20;;;;;;;3.22;2.88;;;;;;;;;;4970936;28;20034;-76
2023/07/09 12:40:50;;;;;;;6.55;4.20;;;;;;;;;;4971286;28;20037;-78
2023/07/09 12:43:28;;;;;;;5.88;3.80;;;;;;;;;;4969082;28;20034;-77
2023/07/09 12:45:54;;;;;;;4.85;4.20;;;;;;;;;;4974141;28;20150;-76
2023/07/09 12:48:29;;;;;;;7.72;3.63;;;;;;;;;;4976640;28;20034;-77
2023/07/09 12:50:57;;;;;;;6.82;4.53;;;;;;;;;;4973505;28;20037;-76
2023/07/09 12:53:29;;;;;;;6.35;4.35;;;;;;;;;;4969814;28;20023;-77
2023/07/09 12:55:56;;;;;;;6.40;4.45;;;;;;;;;;4974323;28;20045;-75
2023/07/09 12:58:25;;;;;;;4.20;3.70;;;;;;;;;;4977207;28;20351;-79
2023/07/09 13:00:54;;;;;;;6.40;4.63;;;;;;;;;;4975006;28;20046;-77
2023/07/09 13:03:24;;;;;;;6.82;4.15;;;;;;;;;;4977044;28;20066;-78
2023/07/09 13:06:27;;;;;;;5.75;3.97;;;;;;;;;;4971168;28;20077;-78
2023/07/09 13:08:58;;;;;;;4.82;3.65;;;;;;;;;;4971516;28;20503;-78
2023/07/09 13:11:24;;;;;;;4.30;3.55;;;;;;;;;;4971926;28;20042;-77
2023/07/09 13:13:58;;;;;;;4.47;3.50;;;;;;;;;;4974389;28;20098;-78
2023/07/09 13:16:24;;;;;;;5.07;3.40;;;;;;;;;;4969520;28;20045;-78
2023/07/09 13:18:49;;;;;;;4.97;4.18;;;;;;;;;;4974061;28;20038;-78
2023/07/09 13:21:20;;;;;;;5.35;4.18;;;;;;;;;;4976923;28;20034;-77
2023/07/09 13:23:46;;;;;;;4.72;4.00;;;;;;;;;;4974750;28;20052;-77
2023/07/09 13:26:13;;;;;;;4.63;3.80;;;;;;;;;;4968176;28;20025;-77
2023/07/09 13:28:39;;;;;;;7.65;4.20;;;;;;;;;;4963272;28;20152;-78
2023/07/09 13:31:15;;;;;;;4.80;3.78;;;;;;;;;;4967905;28;20076;-77
2023/07/09 13:33:42;;;;;;;4.38;3.78;;;;;;;;;;4967058;28;20523;-77
2023/07/09 13:36:08;;;;;;;4.28;3.67;;;;;;;;;;4972644;28;20399;-76
2023/07/09 13:38:34;;;;;;;4.70;4.13;;;;;;;;;;4968171;28;20484;-78
2023/07/09 13:41:09;;;;;;;5.03;3.60;;;;;;;;;;4972973;28;20053;-77
2023/07/09 13:43:36;;;;;;;6.50;4.15;;;;;;;;;;4970034;28;20034;-78
2023/07/09 13:46:03;;;;;;;6.60;4.55;;;;;;;;;;4970851;28;20655;-78
2023/07/09 13:48:31;;;;;;;5.30;4.45;;;;;;;;;;4968983;28;20030;-78
2023/07/09 13:50:57;;;;;;;6.13;4.00;;;;;;;;;;4970929;28;20057;-79
2023/07/09 13:53:26;;;;;;;6.90;4.10;;;;;;;;;;4971054;28;20098;-77
2023/07/09 13:55:53;;;;;;;4.78;4.30;;;;;;;;;;4971004;28;20033;-77
2023/07/09 13:58:20;;;;;;;4.75;3.35;;;;;;;;;;4971940;28;20035;-76
2023/07/09 14:00:48;;;;;;;5.45;4.00;;;;;;;;;;4970457;28;20380;-77
2023/07/09 14:03:21;;;;;;;5.18;3.85;;;;;;;;;;4984124;28;20030;-78
2023/07/09 14:05:48;;;;;;;6.35;4.03;;;;;;;;;;4982324;28;20038;-77
2023/07/09 14:08:13;;;;;;;5.82;4.30;;;;;;;;;;4972688;28;20597;-79
2023/07/09 14:10:39;;;;;;;5.35;4.22;;;;;;;;;;4970496;28;20093;-77
2023/07/09 14:13:05;;;;;;;5.65;4.00;;;;;;;;;;4968491;28;20043;-78
2023/07/09 14:15:31;;;;;;;8.10;4.18;;;;;;;;;;4973014;28;20662;-78
2023/07/09 14:17:56;;;;;;;6.10;3.97;;;;;;;;;;4972713;28;20101;-78
2023/07/09 14:20:22;;;;;;;3.90;3.50;;;;;;;;;;4968464;28;20041;-77
2023/07/09 14:22:49;;;;;;;5.65;3.78;;;;;;;;;;4968731;28;20190;-77
2023/07/09 14:25:19;;;;;;;6.13;4.40;;;;;;;;;;4973358;28;20435;-77
2023/07/09 14:27:44;;;;;;;5.55;4.15;;;;;;;;;;4978450;28;20023;-77
2023/07/09 14:30:14;;;;;;;4.22;3.35;;;;;;;;;;4979364;28;20026;-78
2023/07/09 14:32:41;;;;;;;4.15;3.75;;;;;;;;;;4968455;28;20582;-78
2023/07/09 14:35:21;;;;;;;5.13;4.00;;;;;;;;;;4978176;28;20506;-76
2023/07/09 14:37:49;;;;;;;4.65;3.60;;;;;;;;;;4967103;28;20031;-78
2023/07/09 14:40:16;;;;;;;4.70;3.42;;;;;;;;;;4966418;28;20034;-77
2023/07/09 14:42:42;;;;;;;4.55;3.42;;;;;;;;;;4968796;28;20170;-76
2023/07/09 14:45:20;;;;;;;4.82;3.45;;;;;;;;;;4969662;28;20027;-76
2023/07/09 14:47:46;;;;;;;5.43;3.60;;;;;;;;;;4968901;28;20118;-76
2023/07/09 14:50:12;;;;;;;6.10;3.50;;;;;;;;;;4967484;28;20716;-77
2023/07/09 14:52:38;;;;;;;4.40;3.50;;;;;;;;;;4977589;28;20746;-77